createdAt,value
2022-12-06T00:01:46.177Z,100576.93
2022-12-06T00:04:17.229Z,100577.78
2022-12-06T00:06:48.979Z,100567.73
2022-12-06T00:09:18.791Z,100564.42
2022-12-06T00:11:48.113Z,100566.01
2022-12-06T00:14:18.239Z,100564.70
2022-12-06T00:16:48.671Z,100569.33
2022-12-06T00:19:20.330Z,100566.15
2022-12-06T00:21:49.676Z,100557.76
2022-12-06T00:24:22.079Z,100551.89
2022-12-06T00:26:53.463Z,100545.65
2022-12-06T00:29:24.356Z,100538.43
2022-12-06T00:31:53.795Z,100523.18
2022-12-06T00:34:22.478Z,100513.04
2022-12-06T00:36:51.402Z,100514.23
2022-12-06T00:39:20.441Z,100510.20
2022-12-06T00:41:49.205Z,100511.17
2022-12-06T00:44:18.000Z,100517.17
2022-12-06T00:46:46.709Z,100511.29
2022-12-06T00:49:15.712Z,100520.23
2022-12-06T00:51:44.569Z,100527.88
2022-12-06T00:54:15.318Z,100528.31
2022-12-06T00:56:43.989Z,100523.55
2022-12-06T00:59:12.733Z,100527.94
2022-12-06T01:01:43.003Z,100533.66
2022-12-06T01:04:11.773Z,100540.21
2022-12-06T01:06:40.499Z,100535.90
2022-12-06T01:09:12.329Z,100531.15
2022-12-06T01:11:41.252Z,100525.38
2022-12-06T01:14:10.271Z,100523.21
2022-12-06T01:16:39.456Z,100524.45
2022-12-06T01:19:08.453Z,100527.52
2022-12-06T01:21:37.304Z,100532.33
2022-12-06T01:24:06.722Z,100527.80
2022-12-06T01:26:36.420Z,100526.06
2022-12-06T01:29:06.088Z,100529.17
2022-12-06T01:31:38.834Z,100525.90
2022-12-06T01:34:17.313Z,100520.52
2022-12-06T01:36:46.199Z,100527.04
2022-12-06T01:39:15.700Z,100530.35
2022-12-06T01:41:44.695Z,100524.63
2022-12-06T01:44:49.853Z,100516.20
2022-12-06T01:47:37.692Z,100513.12
2022-12-06T01:50:22.063Z,100511.74
2022-12-06T01:52:58.494Z,100508.32
2022-12-06T01:55:32.913Z,100506.10
2022-12-06T01:58:10.413Z,100505.39
2022-12-06T02:03:53.977Z,100494.08
2022-12-06T02:06:24.723Z,100490.86
2022-12-06T02:08:57.165Z,100484.61
2022-12-06T02:11:29.424Z,100478.71
2022-12-06T02:14:02.778Z,100470.73
2022-12-06T02:17:23.212Z,100465.73
2022-12-06T02:20:19.509Z,100460.29
2022-12-06T02:23:12.061Z,100446.11
2022-12-06T02:26:29.034Z,100447.95
2022-12-06T02:29:53.902Z,100448.94
2022-12-06T02:33:00.707Z,100443.22
2022-12-06T02:35:44.341Z,100437.85
2022-12-06T02:38:43.679Z,100433.33
2022-12-06T02:41:40.400Z,100433.17
2022-12-06T02:44:20.031Z,100429.27
2022-12-06T02:46:51.195Z,100429.17
2022-12-06T02:49:24.573Z,100428.34
2022-12-06T02:51:54.841Z,100430.25
2022-12-06T02:54:27.172Z,100426.59
2022-12-06T02:56:56.050Z,100422.20
2022-12-06T02:59:24.842Z,100423.19
2022-12-06T03:01:59.792Z,100422.27
2022-12-06T03:04:49.787Z,100419.00
2022-12-06T03:07:49.230Z,100415.56
2022-12-06T03:10:27.323Z,100415.43
2022-12-06T03:13:14.378Z,100408.96
2022-12-06T03:16:17.443Z,100409.42
2022-12-06T03:19:05.214Z,100412.64
2022-12-06T03:21:53.953Z,100414.96
2022-12-06T03:24:24.623Z,100413.80
2022-12-06T03:26:56.640Z,100409.52
2022-12-06T03:29:30.482Z,100409.51
2022-12-06T03:32:05.206Z,100408.52
2022-12-06T03:34:41.578Z,100406.31
2022-12-06T03:37:16.271Z,100400.44
2022-12-06T03:40:14.950Z,100393.84
2022-12-06T03:42:43.944Z,100391.55
2022-12-06T03:45:14.456Z,100385.58
2022-12-06T03:47:58.519Z,100379.46
2022-12-06T03:50:39.485Z,100378.02
2022-12-06T03:53:08.597Z,100371.77
2022-12-06T03:55:37.439Z,100373.43
2022-12-06T03:58:06.334Z,100374.25
2022-12-06T04:00:35.130Z,100378.38
2022-12-06T04:03:04.145Z,100381.46
2022-12-06T04:05:33.059Z,100379.88
2022-12-06T04:08:02.024Z,100379.17
2022-12-06T04:10:31.025Z,100372.92
2022-12-06T04:13:02.627Z,100367.35
2022-12-06T04:15:36.906Z,100361.09
2022-12-06T04:18:18.647Z,100360.25
2022-12-06T04:21:08.673Z,100364.02
2022-12-06T04:23:41.154Z,100363.89
2022-12-06T04:26:14.396Z,100363.17
2022-12-06T04:29:01.933Z,100360.58
2022-12-06T04:31:49.950Z,100360.64
2022-12-06T04:34:37.829Z,100362.46
2022-12-06T04:37:25.895Z,100362.40
2022-12-06T04:39:56.136Z,100360.21
2022-12-06T04:43:03.364Z,100357.64
2022-12-06T04:45:32.288Z,100362.35
2022-12-06T04:48:01.218Z,100365.29
2022-12-06T04:50:30.064Z,100366.80
2022-12-06T04:52:59.163Z,100365.86
2022-12-06T04:55:28.059Z,100365.67
2022-12-06T04:57:56.842Z,100363.23
2022-12-06T05:00:25.735Z,100360.77
2022-12-06T05:02:54.927Z,100354.20
2022-12-06T05:05:24.558Z,100352.64
2022-12-06T05:07:53.647Z,100345.52
2022-12-06T05:10:22.659Z,100338.94
2022-12-06T05:12:51.757Z,100336.46
2022-12-06T05:15:24.478Z,100334.84
2022-12-06T05:17:55.990Z,100336.85
2022-12-06T05:20:25.031Z,100332.33
2022-12-06T05:22:53.946Z,100329.88
2022-12-06T05:25:22.776Z,100341.23
2022-12-06T05:27:51.621Z,100344.06
2022-12-06T05:30:20.592Z,100329.95
2022-12-06T05:32:53.882Z,100314.96
2022-12-06T05:35:25.850Z,100315.81
2022-12-06T05:37:54.658Z,100318.73
2022-12-06T05:40:23.478Z,100326.31
2022-12-06T05:42:54.465Z,100326.14
2022-12-06T05:45:23.971Z,100325.77
2022-12-06T05:47:52.922Z,100325.58
2022-12-06T05:50:21.837Z,100323.83
2022-12-06T05:52:57.235Z,100325.71
2022-12-06T05:55:27.850Z,100323.09
2022-12-06T05:57:56.878Z,100310.64
2022-12-06T06:00:25.910Z,100309.56
2022-12-06T06:02:54.974Z,100304.69
2022-12-06T06:05:24.000Z,100300.68
2022-12-06T06:07:53.096Z,100293.73
2022-12-06T06:10:23.329Z,100292.34
2022-12-06T06:12:53.042Z,100298.54
2022-12-06T06:15:23.239Z,100304.55
2022-12-06T06:17:53.683Z,100298.70
2022-12-06T06:20:22.573Z,100297.34
2022-12-06T06:22:51.512Z,100300.64
2022-12-06T06:25:20.854Z,100299.29
2022-12-06T06:27:49.705Z,100295.69
2022-12-06T06:30:20.506Z,100293.44
2022-12-06T06:32:49.680Z,100297.60
2022-12-06T06:35:18.935Z,100297.63
2022-12-06T06:37:48.334Z,100290.44
2022-12-06T06:40:17.782Z,100290.80
2022-12-06T06:42:46.836Z,100291.81
2022-12-06T06:45:15.752Z,100295.27
2022-12-06T06:47:44.608Z,100292.48
2022-12-06T06:50:14.571Z,100290.73
2022-12-06T06:52:43.473Z,100290.70
2022-12-06T06:55:12.882Z,100289.51
2022-12-06T06:57:41.815Z,100296.35
2022-12-06T07:00:11.691Z,100290.45
2022-12-06T07:02:40.634Z,100288.86
2022-12-06T07:05:09.817Z,100287.63
2022-12-06T07:07:39.278Z,100287.94
2022-12-06T07:10:11.491Z,100286.50
2022-12-06T07:12:40.453Z,100283.05
2022-12-06T07:15:10.058Z,100283.02
2022-12-06T07:17:39.026Z,100283.02
2022-12-06T07:20:08.718Z,100285.91
2022-12-06T07:22:37.849Z,100287.63
2022-12-06T07:25:07.240Z,100287.48
2022-12-06T07:27:37.152Z,100288.44
2022-12-06T07:30:07.322Z,100287.52
2022-12-06T07:32:37.289Z,100287.41
2022-12-06T07:35:07.113Z,100289.30
2022-12-06T07:37:36.083Z,100293.77
2022-12-06T07:40:06.646Z,100291.73
2022-12-06T07:42:54.473Z,100292.84
2022-12-06T07:45:23.541Z,100291.40
2022-12-06T07:47:52.566Z,100294.47
2022-12-06T07:50:23.149Z,100293.95
2022-12-06T07:52:52.087Z,100290.60
2022-12-06T07:55:21.226Z,100290.66
2022-12-06T07:57:49.911Z,100292.86
2022-12-06T08:00:19.424Z,100294.23
2022-12-06T08:02:48.280Z,100289.25
2022-12-06T08:05:17.212Z,100291.53
2022-12-06T08:07:45.977Z,100289.51
2022-12-06T08:10:14.802Z,100287.67
2022-12-06T08:12:43.674Z,100286.02
2022-12-06T08:15:15.536Z,100282.62
2022-12-06T08:17:45.479Z,100282.77
2022-12-06T08:20:16.795Z,100284.77
2022-12-06T08:22:45.694Z,100292.10
2022-12-06T08:25:14.765Z,100291.83
2022-12-06T08:27:43.566Z,100293.63
2022-12-06T08:30:12.813Z,100290.42
2022-12-06T08:32:41.686Z,100291.55
2022-12-06T08:35:11.791Z,100291.28
2022-12-06T08:37:40.616Z,100283.77
2022-12-06T08:40:11.813Z,100280.74
2022-12-06T08:42:42.397Z,100280.11
2022-12-06T08:45:11.704Z,100281.20
2022-12-06T08:47:40.450Z,100280.58
2022-12-06T08:50:09.552Z,100279.11
2022-12-06T08:52:38.404Z,100282.48
2022-12-06T08:55:08.128Z,100282.56
2022-12-06T08:57:37.042Z,100280.63
2022-12-06T09:00:07.202Z,100281.11
2022-12-06T09:02:39.986Z,100279.01
2022-12-06T09:05:09.673Z,100269.71
2022-12-06T09:07:38.554Z,100267.34
2022-12-06T09:10:08.542Z,100266.48
2022-12-06T09:12:37.423Z,100262.70
2022-12-06T09:15:07.018Z,100264.41
2022-12-06T09:17:36.223Z,100266.11
2022-12-06T09:20:06.685Z,100265.19
2022-12-06T09:22:35.922Z,100267.58
2022-12-06T09:25:05.178Z,100269.08
2022-12-06T09:27:34.005Z,100270.46
2022-12-06T09:30:04.293Z,100262.05
2022-12-06T09:32:33.254Z,100260.94
2022-12-06T09:35:02.173Z,100255.14
2022-12-06T09:37:32.620Z,100255.73
2022-12-06T09:40:11.814Z,100256.66
2022-12-06T09:43:28.757Z,100254.34
2022-12-06T09:46:25.066Z,100247.86
2022-12-06T09:49:44.520Z,100246.79
2022-12-06T09:52:37.384Z,100237.71
2022-12-06T09:55:20.222Z,100236.33
2022-12-06T09:58:19.804Z,100229.93
2022-12-06T10:01:06.754Z,100228.04
2022-12-06T10:04:02.034Z,100226.62
2022-12-06T10:06:48.559Z,100222.23
2022-12-06T10:09:29.982Z,100218.88
2022-12-06T10:12:17.291Z,100214.84
2022-12-06T10:15:09.127Z,100210.31
2022-12-06T10:17:52.327Z,100205.96
2022-12-06T10:20:47.453Z,100201.30
2022-12-06T10:23:41.757Z,100197.60
2022-12-06T10:26:26.612Z,100195.58
2022-12-06T10:29:32.915Z,100186.73
2022-12-06T10:32:32.829Z,100185.35
2022-12-06T10:35:55.685Z,100188.05
2022-12-06T10:38:57.597Z,100189.75
2022-12-06T10:41:45.576Z,100185.16
2022-12-06T10:44:46.809Z,100181.07
2022-12-06T10:47:40.832Z,100184.09
2022-12-06T10:50:30.423Z,100180.52
2022-12-06T10:53:39.354Z,100176.35
2022-12-06T10:56:33.845Z,100182.51
2022-12-06T10:59:27.296Z,100179.88
2022-12-06T11:02:55.710Z,100176.09
2022-12-06T11:06:01.758Z,100171.87
2022-12-06T11:08:45.570Z,100174.02
2022-12-06T11:11:36.068Z,100167.98
2022-12-06T11:14:48.468Z,100163.40
2022-12-06T11:17:34.224Z,100156.14
2022-12-06T11:20:30.010Z,100147.84
2022-12-06T11:23:38.962Z,100150.19
2022-12-06T11:27:00.222Z,100143.66
2022-12-06T11:30:02.532Z,100141.96
2022-12-06T11:32:50.899Z,100135.21
2022-12-06T11:35:30.714Z,100135.95
2022-12-06T11:38:10.977Z,100137.46
2022-12-06T11:41:07.385Z,100133.19
2022-12-06T11:43:47.543Z,100135.08
2022-12-06T11:49:37.148Z,100133.28
2022-12-06T11:52:42.673Z,100121.77
2022-12-06T11:55:47.200Z,100117.36
2022-12-06T11:58:38.126Z,100117.40
2022-12-06T12:01:14.808Z,100115.63
2022-12-06T12:04:36.036Z,100117.14
2022-12-06T12:07:24.247Z,100112.48
2022-12-06T12:10:09.783Z,100108.59
2022-12-06T12:13:08.408Z,100104.23
2022-12-06T12:16:48.669Z,100098.30
2022-12-06T12:19:37.564Z,100095.00
2022-12-06T12:23:14.123Z,100095.12
2022-12-06T12:26:29.455Z,100096.73
2022-12-06T12:29:33.367Z,100094.48
2022-12-06T12:33:06.937Z,100090.07
2022-12-06T12:35:28.232Z,100090.60
2022-12-06T12:38:19.121Z,100083.34
2022-12-06T12:41:12.994Z,100078.91
2022-12-06T12:44:20.518Z,100072.41
2022-12-06T12:46:52.271Z,100073.95
2022-12-06T12:49:30.724Z,100075.92
2022-12-06T12:52:04.896Z,100071.67
2022-12-06T12:54:40.532Z,100068.90
2022-12-06T12:57:26.735Z,100068.05
2022-12-06T13:00:00.757Z,100067.44
2022-12-06T13:02:40.848Z,100068.66
2022-12-06T13:05:35.474Z,100072.80
2022-12-06T13:08:32.448Z,100070.23
2022-12-06T13:11:24.473Z,100076.27
2022-12-06T13:14:13.972Z,100071.06
2022-12-06T13:17:11.117Z,100068.50
2022-12-06T13:19:59.484Z,100065.77
2022-12-06T13:22:52.993Z,100065.21
2022-12-06T13:25:32.244Z,100068.39
2022-12-06T13:28:13.686Z,100070.09
2022-12-06T13:30:59.331Z,100069.39
2022-12-06T13:33:37.166Z,100064.73
2022-12-06T13:36:14.300Z,100060.06
2022-12-06T13:38:48.997Z,100061.83
2022-12-06T13:42:11.254Z,100062.77
2022-12-06T13:45:01.483Z,100061.15
2022-12-06T13:47:31.211Z,100061.48
2022-12-06T13:50:22.993Z,100064.21
2022-12-06T13:52:57.217Z,100064.60
2022-12-06T13:55:33.012Z,100060.98
2022-12-06T13:58:05.582Z,100065.45
2022-12-06T14:00:44.356Z,100066.15
2022-12-06T14:03:24.202Z,100068.08
2022-12-06T14:06:20.635Z,100065.20
2022-12-06T14:09:00.443Z,100067.12
2022-12-06T14:11:45.777Z,100067.69
2022-12-06T14:14:26.626Z,100066.85
2022-12-06T14:17:38.395Z,100068.41
2022-12-06T14:20:29.522Z,100065.00
2022-12-06T14:23:05.081Z,100065.23
2022-12-06T14:25:43.803Z,100064.00
2022-12-06T14:28:22.231Z,100062.64
2022-12-06T14:31:04.970Z,100062.00
2022-12-06T14:33:39.950Z,100066.04
2022-12-06T14:36:32.213Z,100067.80
2022-12-06T14:39:25.519Z,100064.72
2022-12-06T14:42:37.194Z,100059.06
2022-12-06T14:45:16.026Z,100056.90
2022-12-06T14:47:49.126Z,100061.27
2022-12-06T14:50:33.100Z,100058.48
2022-12-06T14:53:29.363Z,100063.00
2022-12-06T14:56:29.713Z,100061.40
2022-12-06T14:59:01.925Z,100059.90
2022-12-06T15:01:34.291Z,100060.05
2022-12-06T15:04:09.509Z,100060.05
2022-12-06T15:06:52.445Z,100062.02
2022-12-06T15:09:22.486Z,100062.41
2022-12-06T15:12:10.649Z,100063.41
2022-12-06T15:14:39.818Z,100062.56
2022-12-06T15:17:13.376Z,100061.54
2022-12-06T15:19:49.956Z,100059.30
2022-12-06T15:22:27.726Z,100059.58
2022-12-06T15:25:00.273Z,100058.08
2022-12-06T15:27:31.367Z,100058.09
2022-12-06T15:30:05.230Z,100057.41
2022-12-06T15:32:34.906Z,100057.27
2022-12-06T15:35:09.446Z,100053.00
2022-12-06T15:37:40.419Z,100053.55
2022-12-06T15:40:15.222Z,100055.70
2022-12-06T15:42:44.741Z,100055.24
2022-12-06T15:45:18.920Z,100054.36
2022-12-06T15:47:51.879Z,100048.33
2022-12-06T15:50:21.206Z,100043.53
2022-12-06T15:53:23.412Z,100047.02
2022-12-06T15:55:57.207Z,100046.94
2022-12-06T15:58:26.516Z,100042.51
2022-12-06T16:00:57.756Z,100044.22
2022-12-06T16:03:26.912Z,100043.88
2022-12-06T16:05:57.268Z,100041.63
2022-12-06T16:08:26.536Z,100038.04
2022-12-06T16:11:13.549Z,100032.08
2022-12-06T16:13:42.810Z,100031.80
2022-12-06T16:16:12.901Z,100031.63
2022-12-06T16:18:46.542Z,100028.12
2022-12-06T16:21:23.412Z,100023.96
2022-12-06T16:24:14.645Z,100020.91
2022-12-06T16:26:45.779Z,100021.30
2022-12-06T16:29:25.149Z,100020.44
2022-12-06T16:31:54.618Z,100021.61
2022-12-06T16:34:34.806Z,100024.50
2022-12-06T16:37:06.781Z,100022.47
2022-12-06T16:39:36.146Z,100019.08
2022-12-06T16:42:05.531Z,100020.98
2022-12-06T16:44:51.277Z,100021.72
2022-12-06T16:49:49.929Z,100021.55
2022-12-06T16:52:19.389Z,100022.07
2022-12-06T16:54:52.790Z,100021.24
2022-12-06T16:57:31.238Z,100015.84
2022-12-06T17:00:02.421Z,100012.09
2022-12-06T17:02:36.424Z,100013.00
2022-12-06T17:05:10.348Z,100012.16
2022-12-06T17:07:41.158Z,100013.38
2022-12-06T17:10:18.505Z,100013.17
2022-12-06T17:12:49.711Z,100016.05
2022-12-06T17:15:21.788Z,100014.98
2022-12-06T17:17:51.498Z,100014.60
2022-12-06T17:20:20.806Z,100014.60
2022-12-06T17:22:49.994Z,100018.20
2022-12-06T17:25:22.103Z,100021.45
2022-12-06T17:28:01.968Z,100028.83
2022-12-06T17:30:31.042Z,100031.73
2022-12-06T17:33:00.341Z,100032.29
2022-12-06T17:35:38.788Z,100032.14
2022-12-06T17:38:09.557Z,100033.16
2022-12-06T17:40:39.049Z,100030.20
2022-12-06T17:43:17.915Z,100029.84
2022-12-06T17:45:57.158Z,100030.35
2022-12-06T17:48:36.026Z,100027.60
2022-12-06T17:51:09.931Z,100027.77
2022-12-06T17:53:42.262Z,100025.55
2022-12-06T17:56:23.085Z,100023.46
2022-12-06T17:58:57.658Z,100022.91
2022-12-06T18:01:50.976Z,100023.91
2022-12-06T18:04:21.775Z,100022.40
2022-12-06T18:06:51.399Z,100019.20
2022-12-06T18:09:29.048Z,100018.70
2022-12-06T18:12:00.330Z,100015.25
2022-12-06T18:14:33.782Z,100014.91
2022-12-06T18:17:09.064Z,100018.77
2022-12-06T18:19:40.593Z,100018.77
2022-12-06T18:22:29.934Z,100020.80
2022-12-06T18:25:03.914Z,100016.88
2022-12-06T18:27:33.294Z,100011.73
2022-12-06T18:30:56.629Z,100010.71
2022-12-06T18:33:52.841Z,100010.27
2022-12-06T18:36:34.173Z,100013.73
2022-12-06T18:39:15.025Z,100011.70
2022-12-06T18:42:25.480Z,100007.44
2022-12-06T18:45:02.745Z,100008.83
2022-12-06T18:48:04.302Z,100009.81
2022-12-06T18:50:39.089Z,100012.02
2022-12-06T18:53:11.129Z,100012.09
2022-12-06T18:55:43.155Z,100013.77
2022-12-06T18:58:15.487Z,100010.59
2022-12-06T19:00:45.644Z,100006.43
2022-12-06T19:03:22.726Z,100002.95
2022-12-06T19:06:03.050Z,100002.27
2022-12-06T19:08:32.867Z,100003.63
2022-12-06T19:11:05.947Z,100003.61
2022-12-06T19:14:08.713Z,99998.14
2022-12-06T19:16:48.405Z,100000.16
2022-12-06T19:19:25.973Z,100001.73
2022-12-06T19:22:00.531Z,100002.66
2022-12-06T19:24:42.253Z,100002.80
2022-12-06T19:27:18.492Z,99998.79
2022-12-06T19:29:50.145Z,99999.96
2022-12-06T19:32:28.952Z,100001.77
2022-12-06T19:35:08.176Z,100001.46
2022-12-06T19:37:46.776Z,99993.96
2022-12-06T19:40:28.115Z,99992.91
2022-12-06T19:43:22.867Z,99987.55
2022-12-06T19:45:56.483Z,99987.42
2022-12-06T19:48:28.294Z,99982.56
2022-12-06T19:50:58.838Z,99981.46
2022-12-06T19:53:28.447Z,99980.23
2022-12-06T19:56:09.877Z,99982.65
2022-12-06T19:58:51.381Z,99979.40
2022-12-06T20:01:35.839Z,99974.60
2022-12-06T20:04:29.666Z,99975.15
2022-12-06T20:07:10.326Z,99972.05
2022-12-06T20:09:40.087Z,99971.55
2022-12-06T20:12:13.280Z,99968.67
2022-12-06T20:14:56.850Z,99972.15
2022-12-06T20:17:43.791Z,99969.92
2022-12-06T20:20:22.892Z,99968.86
2022-12-06T20:23:10.240Z,99971.91
2022-12-06T20:25:44.369Z,99969.66
2022-12-06T20:28:28.275Z,99970.48
2022-12-06T20:31:17.941Z,99969.64
2022-12-06T20:34:03.337Z,99966.92
2022-12-06T20:36:38.231Z,99964.73
2022-12-06T20:39:08.189Z,99961.30
2022-12-06T20:41:37.782Z,99954.77
2022-12-06T20:44:10.653Z,99952.30
2022-12-06T20:46:54.468Z,99948.30
2022-12-06T20:49:24.623Z,99946.71
2022-12-06T20:51:54.037Z,99940.86
2022-12-06T20:54:23.485Z,99937.24
2022-12-06T20:56:55.283Z,99934.70
2022-12-06T20:59:25.070Z,99931.82
2022-12-06T21:01:55.192Z,99930.99
2022-12-06T21:04:32.913Z,99933.73
2022-12-06T21:07:04.859Z,99925.20
2022-12-06T21:09:40.791Z,99932.02
2022-12-06T21:12:21.484Z,99932.88
2022-12-06T21:14:55.915Z,99928.65
2022-12-06T21:17:29.170Z,99926.50
2022-12-06T21:20:04.180Z,99925.86
2022-12-06T21:22:47.098Z,99929.49
2022-12-06T21:30:03.805Z,99936.23
2022-12-06T21:31:38.497Z,99933.56
2022-12-06T21:34:18.926Z,99934.23
2022-12-06T21:36:51.540Z,99932.33
2022-12-06T21:39:22.699Z,99935.92
2022-12-06T21:41:56.462Z,99940.75
2022-12-06T21:44:35.990Z,99942.82
2022-12-06T21:48:50.348Z,99942.45
2022-12-06T21:50:16.075Z,99936.80
2022-12-06T21:52:59.569Z,99940.72
2022-12-06T21:55:45.493Z,99943.27
2022-12-06T21:58:41.194Z,99934.06
2022-12-06T22:01:27.226Z,99933.02
2022-12-06T22:04:05.032Z,99927.36
2022-12-06T22:06:36.999Z,99920.80
2022-12-06T22:09:07.137Z,99919.13
2022-12-06T22:11:37.081Z,99917.95
2022-12-06T22:14:08.799Z,99917.20
2022-12-06T22:16:40.719Z,99914.88
2022-12-06T22:19:25.419Z,99916.39
2022-12-06T22:22:00.491Z,99914.69
2022-12-06T22:24:50.791Z,99920.39
2022-12-06T22:27:21.974Z,99920.57
2022-12-06T22:29:51.073Z,99919.60
2022-12-06T22:32:20.701Z,99917.21
2022-12-06T22:34:52.480Z,99911.17
2022-12-06T22:37:29.734Z,99908.73
2022-12-06T22:40:09.189Z,99900.85
2022-12-06T22:42:38.517Z,99903.58
2022-12-06T22:45:14.530Z,99898.64
2022-12-06T22:47:48.537Z,99899.60
2022-12-06T22:50:31.544Z,99897.26
2022-12-06T22:53:11.532Z,99898.33
2022-12-06T22:55:40.664Z,99896.51
2022-12-06T22:58:11.530Z,99897.55
2022-12-06T23:00:41.454Z,99905.30
2022-12-06T23:03:12.907Z,99904.99
2022-12-06T23:05:42.205Z,99905.50
2022-12-06T23:08:15.997Z,99908.63
2022-12-06T23:10:47.431Z,99904.52
2022-12-06T23:13:16.499Z,99896.96
2022-12-06T23:15:55.612Z,99897.96
2022-12-06T23:18:26.028Z,99894.15
2022-12-06T23:21:07.251Z,99894.14
2022-12-06T23:23:41.337Z,99894.70
2022-12-06T23:26:18.789Z,99896.77
2022-12-06T23:28:48.039Z,99894.04
2022-12-06T23:31:39.170Z,99889.73
2022-12-06T23:34:29.587Z,99888.40
2022-12-06T23:36:59.649Z,99884.67
2022-12-06T23:39:28.809Z,99886.59
2022-12-06T23:41:57.869Z,99884.17
2022-12-06T23:44:26.848Z,99881.59
2022-12-06T23:46:55.872Z,99880.38
2022-12-06T23:49:24.815Z,99878.65
2022-12-06T23:51:53.873Z,99876.92
2022-12-06T23:54:22.811Z,99876.91
2022-12-06T23:56:51.748Z,99875.69
2022-12-06T23:59:20.694Z,99875.52
